createdAt,value
2024-05-09T00:04:43.462Z,50.51
2024-05-09T00:09:45.565Z,50.59
2024-05-09T00:14:47.758Z,50.24
2024-05-09T00:19:49.774Z,49.92
2024-05-09T00:24:51.778Z,48.27
2024-05-09T00:29:53.751Z,49.38
2024-05-09T00:34:55.703Z,49.51
2024-05-09T00:39:57.678Z,49.49
2024-05-09T00:44:59.707Z,49.67
2024-05-09T00:50:04.126Z,50.63
2024-05-09T00:55:07.722Z,49.96
2024-05-09T01:00:18.586Z,50.44
2024-05-09T01:05:28.797Z,50.35
2024-05-09T01:10:34.283Z,50.46
2024-05-09T01:15:37.424Z,50.29
2024-05-09T01:20:42.855Z,50.84
2024-05-09T01:25:47.239Z,51.78
2024-05-09T01:30:49.358Z,51.19
2024-05-09T01:35:51.313Z,51.11
2024-05-09T01:40:53.327Z,51.97
2024-05-09T01:45:55.540Z,51.71
2024-05-09T01:50:57.700Z,50.63
2024-05-09T01:55:59.825Z,51.38
2024-05-09T02:01:02.077Z,50.85
2024-05-09T02:06:04.440Z,51.47
2024-05-09T02:11:08.829Z,51.50
2024-05-09T02:16:14.806Z,52.32
2024-05-09T02:21:16.821Z,51.77
2024-05-09T02:26:18.874Z,51.68
2024-05-09T02:31:20.904Z,52.19
2024-05-09T02:36:22.881Z,52.64
2024-05-09T02:41:24.949Z,52.28
2024-05-09T02:46:27.195Z,51.45
2024-05-09T02:51:29.296Z,50.18
2024-05-09T02:56:31.296Z,50.44
2024-05-09T03:01:33.316Z,50.84
2024-05-09T03:06:40.424Z,50.81
2024-05-09T03:11:42.508Z,52.27
2024-05-09T03:16:44.555Z,51.02
2024-05-09T03:21:46.538Z,51.11
2024-05-09T03:26:49.066Z,50.63
2024-05-09T03:31:51.069Z,50.53
2024-05-09T03:36:53.131Z,51.18
2024-05-09T03:41:55.101Z,51.03
2024-05-09T03:46:57.566Z,51.86
2024-05-09T03:52:04.927Z,51.86
2024-05-09T03:57:06.906Z,51.75
2024-05-09T04:02:09.033Z,52.40
2024-05-09T04:07:11.229Z,52.42
2024-05-09T04:12:13.357Z,52.34
2024-05-09T04:17:15.546Z,52.34
2024-05-09T04:22:17.524Z,51.54
2024-05-09T04:27:19.600Z,51.79
2024-05-09T04:32:21.774Z,53.10
2024-05-09T04:37:25.562Z,52.39
2024-05-09T04:42:27.540Z,52.18
2024-05-09T04:47:29.738Z,52.53
2024-05-09T04:52:31.996Z,51.87
2024-05-09T04:57:33.977Z,51.87
2024-05-09T05:02:37.277Z,51.15
2024-05-09T05:07:39.365Z,51.75
2024-05-09T05:13:00.060Z,51.64
2024-05-09T05:18:02.244Z,50.68
2024-05-09T05:23:08.723Z,50.77
2024-05-09T05:28:11.313Z,50.41
2024-05-09T05:33:15.577Z,50.43
2024-05-09T05:38:19.143Z,49.75
2024-05-09T05:43:22.015Z,49.57
2024-05-09T05:48:24.246Z,49.91
2024-05-09T05:53:26.576Z,49.18
2024-05-09T05:58:28.576Z,49.97
2024-05-09T06:03:30.673Z,49.63
2024-05-09T06:08:32.730Z,49.45
2024-05-09T06:13:34.718Z,50.47
2024-05-09T06:18:36.725Z,50.70
2024-05-09T06:23:46.459Z,51.04
2024-05-09T06:28:48.513Z,51.73
2024-05-09T06:33:50.549Z,50.38
2024-05-09T06:38:52.544Z,49.79
2024-05-09T06:43:54.510Z,50.74
2024-05-09T06:48:57.009Z,51.24
2024-05-09T06:53:59.249Z,53.38
2024-05-09T06:59:01.547Z,54.67
2024-05-09T07:04:03.717Z,55.09
2024-05-09T07:09:05.711Z,58.51
2024-05-09T07:14:07.756Z,58.26
2024-05-09T07:19:10.009Z,56.17
2024-05-09T07:24:12.052Z,57.60
2024-05-09T07:29:14.039Z,60.35
2024-05-09T07:34:16.659Z,60.87
2024-05-09T07:39:18.802Z,57.66
2024-05-09T07:44:20.918Z,58.88
2024-05-09T07:54:28.877Z,58.87
2024-05-09T07:59:33.388Z,61.30
2024-05-09T08:04:37.214Z,61.14
2024-05-09T08:09:39.874Z,57.44
2024-05-09T08:14:41.931Z,52.88
2024-05-09T08:19:43.990Z,50.69
2024-05-09T08:24:46.882Z,55.07
2024-05-09T08:29:49.015Z,53.50
2024-05-09T08:34:51.042Z,57.66
2024-05-09T08:39:53.168Z,59.49
2024-05-09T08:44:55.215Z,58.01
2024-05-09T08:50:00.613Z,63.42
2024-05-09T08:55:03.647Z,63.73
2024-05-09T09:00:10.325Z,59.96
2024-05-09T09:05:17.715Z,57.81
2024-05-09T09:10:29.218Z,52.89
2024-05-09T09:15:33.816Z,51.84
2024-05-09T09:20:37.088Z,52.02
2024-05-09T09:25:40.031Z,53.91
2024-05-09T09:30:43.059Z,55.13
2024-05-09T09:35:45.186Z,54.36
2024-05-09T09:40:50.399Z,56.01
2024-05-09T09:45:55.363Z,56.19
2024-05-09T09:50:58.507Z,60.60
2024-05-09T09:56:02.130Z,58.65
2024-05-09T10:01:04.285Z,61.98
2024-05-09T10:06:09.097Z,54.63
2024-05-09T10:11:11.395Z,60.10
2024-05-09T10:16:19.933Z,55.22
2024-05-09T10:21:22.032Z,55.13
2024-05-09T10:26:37.360Z,50.17
2024-05-09T10:31:42.793Z,58.38
2024-05-09T10:36:44.891Z,57.88
2024-05-09T10:41:47.243Z,51.77
2024-05-09T10:46:50.442Z,56.20
2024-05-09T10:51:52.811Z,50.85
2024-05-09T10:56:58.221Z,51.23
2024-05-09T11:02:04.477Z,46.96
2024-05-09T11:07:12.125Z,50.85
2024-05-09T11:12:14.434Z,55.22
2024-05-09T11:17:16.479Z,56.71
2024-05-09T11:22:18.685Z,52.88
2024-05-09T11:27:23.679Z,55.27
2024-05-09T11:32:29.944Z,52.30
2024-05-09T11:37:36.045Z,50.68
2024-05-09T11:42:39.162Z,55.58
2024-05-09T11:47:41.599Z,51.72
2024-05-09T11:52:43.839Z,51.43
2024-05-09T11:57:45.984Z,54.30
2024-05-09T12:02:47.969Z,50.25
2024-05-09T12:07:51.265Z,54.92
2024-05-09T12:12:53.971Z,52.86
2024-05-09T12:17:58.894Z,49.89
2024-05-09T12:23:03.181Z,49.28
2024-05-09T12:28:05.887Z,51.51
2024-05-09T12:33:09.722Z,52.23
2024-05-09T12:38:12.028Z,50.80
2024-05-09T12:43:14.025Z,49.47
2024-05-09T12:48:16.247Z,47.48
2024-05-09T12:53:18.488Z,50.33
2024-05-09T12:58:23.721Z,48.18
2024-05-09T13:03:25.910Z,49.30
2024-05-09T13:08:27.902Z,47.46
2024-05-09T13:13:29.879Z,49.63
2024-05-09T13:18:33.494Z,48.44
2024-05-09T13:23:37.942Z,45.45
2024-05-09T13:28:39.947Z,47.84
2024-05-09T13:33:42.075Z,45.69
2024-05-09T13:38:44.310Z,44.94
2024-05-09T13:43:46.222Z,46.87
2024-05-09T13:48:48.297Z,45.98
2024-05-09T13:53:50.539Z,45.23
2024-05-09T13:58:52.663Z,45.34
2024-05-09T14:03:54.883Z,44.39
2024-05-09T14:08:56.922Z,42.18
2024-05-09T14:13:58.903Z,38.25
2024-05-09T14:19:01.060Z,36.58
2024-05-09T14:24:03.139Z,33.56
2024-05-09T14:29:05.155Z,36.58
2024-05-09T14:34:07.315Z,34.12
2024-05-09T14:39:09.343Z,32.70
2024-05-09T14:44:12.693Z,35.71
2024-05-09T14:49:14.859Z,35.43
2024-05-09T14:54:17.098Z,36.27
2024-05-09T14:59:19.255Z,33.04
2024-05-09T15:04:21.606Z,34.95
2024-05-09T15:09:24.889Z,32.86
2024-05-09T15:14:26.914Z,32.18
2024-05-09T15:19:29.142Z,32.48
2024-05-09T15:24:33.287Z,33.51
2024-05-09T15:29:35.382Z,31.63
2024-05-09T15:34:37.535Z,33.41
2024-05-09T15:39:40.361Z,31.12
2024-05-09T15:44:42.346Z,31.72
2024-05-09T15:49:44.542Z,32.56
2024-05-09T15:54:47.030Z,30.56
2024-05-09T15:59:49.267Z,34.29
2024-05-09T16:04:51.308Z,34.61
2024-05-09T16:09:53.418Z,33.37
2024-05-09T16:14:55.752Z,29.98
2024-05-09T16:19:57.799Z,31.16
2024-05-09T16:24:59.800Z,33.93
2024-05-09T16:30:05.447Z,33.90
2024-05-09T16:35:09.020Z,34.82
2024-05-09T16:40:21.758Z,35.57
2024-05-09T16:45:31.837Z,35.75
2024-05-09T16:50:35.575Z,36.52
2024-05-09T16:55:38.574Z,35.85
2024-05-09T17:00:43.414Z,35.04
2024-05-09T17:05:47.360Z,35.53
2024-05-09T17:10:50.237Z,36.30
2024-05-09T17:15:52.528Z,36.71
2024-05-09T17:20:54.977Z,36.42
2024-05-09T17:25:57.007Z,37.74
2024-05-09T17:30:59.045Z,39.42
2024-05-09T17:36:01.094Z,37.41
2024-05-09T17:41:03.114Z,37.63
2024-05-09T17:46:07.128Z,38.94
2024-05-09T17:51:09.723Z,39.01
2024-05-09T17:56:11.930Z,36.39
2024-05-09T18:01:14.094Z,37.20
2024-05-09T18:06:16.746Z,39.76
2024-05-09T18:11:18.796Z,37.82
2024-05-09T18:16:21.019Z,39.92
2024-05-09T18:21:23.021Z,40.08
2024-05-09T18:26:25.125Z,45.60
2024-05-09T18:31:27.206Z,42.71
2024-05-09T18:36:29.493Z,42.36
2024-05-09T18:41:31.533Z,42.57
2024-05-09T18:46:33.569Z,40.52
2024-05-09T18:51:35.618Z,40.25
2024-05-09T18:56:37.754Z,40.97
2024-05-09T19:01:42.205Z,40.29
2024-05-09T19:06:47.877Z,40.60
2024-05-09T19:11:49.873Z,41.04
2024-05-09T19:16:51.910Z,40.41
2024-05-09T19:21:54.029Z,41.19
2024-05-09T19:26:56.995Z,42.10
2024-05-09T19:31:59.003Z,41.89
2024-05-09T19:37:02.461Z,43.75
2024-05-09T19:42:04.871Z,42.54
2024-05-09T19:47:06.987Z,42.73
2024-05-09T19:52:09.058Z,43.63
2024-05-09T19:57:11.109Z,43.76
2024-05-09T20:02:13.410Z,44.27
2024-05-09T20:07:15.609Z,44.12
2024-05-09T20:12:17.695Z,45.48
2024-05-09T20:17:19.628Z,45.03
2024-05-09T20:22:21.627Z,45.49
2024-05-09T20:27:24.150Z,45.70
2024-05-09T20:32:26.255Z,45.62
2024-05-09T20:37:28.263Z,45.79
2024-05-09T20:42:30.228Z,46.23
2024-05-09T20:47:32.288Z,45.35
2024-05-09T20:52:34.342Z,45.20
2024-05-09T20:57:36.354Z,46.07
2024-05-09T21:02:40.849Z,47.49
2024-05-09T21:07:42.951Z,46.24
2024-05-09T21:12:44.951Z,45.27
2024-05-09T21:17:47.051Z,46.81
2024-05-09T21:22:49.185Z,45.97
2024-05-09T21:27:51.249Z,45.73
2024-05-09T21:32:53.240Z,45.41
2024-05-09T21:37:55.208Z,45.31
2024-05-09T21:42:57.237Z,45.01
2024-05-09T21:47:59.579Z,44.52
2024-05-09T21:53:01.777Z,43.74
2024-05-09T21:58:04.261Z,46.07
2024-05-09T22:03:08.316Z,47.04
2024-05-09T22:08:11.354Z,49.42
2024-05-09T22:13:13.539Z,48.96
2024-05-09T22:18:15.616Z,49.57
2024-05-09T22:23:17.751Z,49.39
2024-05-09T22:28:19.865Z,48.18
2024-05-09T22:33:22.170Z,47.56
2024-05-09T22:38:26.162Z,46.73
2024-05-09T22:43:28.144Z,46.80
2024-05-09T22:48:30.204Z,45.85
2024-05-09T22:53:32.175Z,47.85
2024-05-09T22:58:34.758Z,49.11
2024-05-09T23:03:39.152Z,48.94
2024-05-09T23:08:41.245Z,49.21
2024-05-09T23:13:43.395Z,50.38
2024-05-09T23:18:45.430Z,49.44
2024-05-09T23:23:47.490Z,48.90
2024-05-09T23:28:49.443Z,49.85
2024-05-09T23:33:51.757Z,49.33
2024-05-09T23:38:53.819Z,49.55
2024-05-09T23:43:55.831Z,49.79
2024-05-09T23:48:57.915Z,48.92
2024-05-09T23:53:59.994Z,49.78
2024-05-09T23:59:02.065Z,49.24
